Time;durP1;ratioP1;P1;durP2;ratioP2;P2;SDS_P1;SDS_P2;PMS_P1;PMS_P2;Temp;Humidity;BMP_temperature;BMP_pressure;BME280_temperature;BME280_humidity;BME280_pressure;Samples;Min_cycle;Max_cycle;Signal;HPM_P1;HPM_P2
2023/04/21 00:01:08;;;;;;;36.57;6.07;;;20.40;68.90;;;;;;5070691;28;20198;-65
2023/04/21 00:03:38;;;;;;;11.00;2.10;;;20.40;68.50;;;;;;5068500;28;20211;-66
2023/04/21 00:06:06;;;;;;;8.00;1.87;;;20.30;67.80;;;;;;5070401;28;20275;-66
2023/04/21 00:08:36;;;;;;;8.10;1.70;;;20.30;68.50;;;;;;5070418;28;20266;-65
2023/04/21 00:11:04;;;;;;;13.03;2.23;;;20.20;68.10;;;;;;5069867;28;20223;-65
2023/04/21 00:13:32;;;;;;;8.83;1.73;;;20.10;68.70;;;;;;5069616;28;20240;-65
2023/04/21 00:16:00;;;;;;;25.07;4.73;;;20.30;68.80;;;;;;5069377;28;20187;-67
2023/04/21 00:18:28;;;;;;;6.07;1.97;;;20.50;68.50;;;;;;5069074;28;20196;-67
2023/04/21 00:20:55;;;;;;;7.77;1.50;;;20.70;66.70;;;;;;5069900;28;20248;-64
2023/04/21 00:23:22;;;;;;;10.33;1.90;;;20.80;66.70;;;;;;5070423;28;20215;-68
2023/04/21 00:25:51;;;;;;;6.97;1.90;;;20.90;65.70;;;;;;5070098;28;20186;-64
2023/04/21 00:28:18;;;;;;;9.43;2.00;;;20.80;66.10;;;;;;5064582;28;20207;-65
2023/04/21 00:30:46;;;;;;;8.50;2.00;;;20.70;66.20;;;;;;5065835;28;20650;-64
2023/04/21 00:33:13;;;;;;;5.40;1.40;;;20.70;66.30;;;;;;5067933;28;20689;-66
2023/04/21 00:35:40;;;;;;;12.03;2.10;;;20.70;66.20;;;;;;5067874;28;20187;-66
2023/04/21 00:38:08;;;;;;;9.20;1.73;;;20.60;66.30;;;;;;5070994;28;20190;-68
2023/04/21 00:40:35;;;;;;;5.90;1.60;;;20.50;66.80;;;;;;5068121;28;20199;-65
2023/04/21 00:43:06;;;;;;;7.10;2.07;;;20.40;66.90;;;;;;5067613;28;20186;-65
2023/04/21 00:45:33;;;;;;;9.13;1.90;;;20.30;67.30;;;;;;5069698;28;20176;-66
2023/04/21 00:48:01;;;;;;;7.20;2.17;;;20.40;67.50;;;;;;5069324;28;20294;-66
2023/04/21 00:50:29;;;;;;;6.17;1.67;;;20.40;67.50;;;;;;5068851;28;20555;-63
2023/04/21 00:52:57;;;;;;;12.77;2.43;;;20.40;67.20;;;;;;5084255;28;20218;-65
2023/04/21 00:55:26;;;;;;;8.10;1.90;;;20.40;67.60;;;;;;5065980;28;20762;-65
2023/04/21 00:57:55;;;;;;;7.20;1.60;;;20.30;67.40;;;;;;5071088;28;20264;-67
2023/04/21 01:00:22;;;;;;;10.63;2.23;;;20.30;67.60;;;;;;5069384;28;20183;-65
2023/04/21 01:02:50;;;;;;;6.83;1.80;;;20.30;68.10;;;;;;5070061;28;20207;-64
2023/04/21 01:05:17;;;;;;;7.07;2.00;;;20.70;67.70;;;;;;5068400;28;20705;-65
2023/04/21 01:07:45;;;;;;;8.20;2.20;;;21.20;65.80;;;;;;5065431;28;20294;-66
2023/04/21 01:10:14;;;;;;;7.17;1.80;;;21.00;65.80;;;;;;5070800;28;20272;-65
2023/04/21 01:12:46;;;;;;;9.67;1.70;;;21.10;65.40;;;;;;5068567;28;20230;-65
2023/04/21 01:15:15;;;;;;;12.40;1.93;;;21.50;64.90;;;;;;5068980;28;20252;-65
2023/04/21 01:17:44;;;;;;;7.40;1.77;;;21.60;63.70;;;;;;5074449;28;20215;-68
2023/04/21 01:20:13;;;;;;;4.20;1.60;;;21.30;64.20;;;;;;5068335;28;20263;-67
2023/04/21 01:22:43;;;;;;;7.70;1.70;;;21.20;64.80;;;;;;5065570;28;20198;-64
2023/04/21 01:25:11;;;;;;;10.33;2.33;;;21.60;64.90;;;;;;5076776;28;20195;-66
2023/04/21 01:27:38;;;;;;;7.83;1.80;;;21.70;63.10;;;;;;5070327;28;20938;-68
2023/04/21 01:30:07;;;;;;;7.33;2.03;;;22.00;63.10;;;;;;5075802;28;20217;-65
2023/04/21 01:32:35;;;;;;;8.80;1.57;;;21.80;63.00;;;;;;5069081;28;20632;-66
2023/04/21 01:35:02;;;;;;;6.30;1.60;;;21.90;61.90;;;;;;5069382;28;20266;-65
2023/04/21 01:37:32;;;;;;;7.13;1.73;;;21.70;62.40;;;;;;5070538;28;20192;-66
2023/04/21 01:40:04;;;;;;;9.30;1.80;;;21.80;63.40;;;;;;5068269;28;20202;-66
2023/04/21 01:42:34;;;;;;;7.40;1.63;;;21.90;62.30;;;;;;5067282;28;20172;-69
2023/04/21 01:45:02;;;;;;;7.03;1.37;;;21.80;62.60;;;;;;5063927;28;20179;-68
2023/04/21 01:47:29;;;;;;;5.73;1.40;;;21.80;62.70;;;;;;5068735;28;20175;-65
2023/04/21 01:49:57;;;;;;;7.13;1.60;;;22.10;62.50;;;;;;5066925;28;20191;-67
2023/04/21 01:52:24;;;;;;;9.63;1.60;;;22.50;61.00;;;;;;5072825;28;20672;-67
2023/04/21 01:54:51;;;;;;;8.93;1.60;;;22.80;59.60;;;;;;5068057;28;20226;-66
2023/04/21 01:57:19;;;;;;;8.63;1.80;;;22.50;59.50;;;;;;5070836;28;20218;-66
2023/04/21 01:59:47;;;;;;;7.20;1.73;;;22.30;61.70;;;;;;5067524;28;20192;-66
2023/04/21 02:02:14;;;;;;;9.63;1.67;;;22.20;61.60;;;;;;5074524;28;20186;-67
2023/04/21 02:04:41;;;;;;;5.83;1.60;;;21.90;61.30;;;;;;5073049;28;20195;-67
2023/04/21 02:07:09;;;;;;;5.53;1.40;;;22.10;61.40;;;;;;5074010;28;20266;-66
2023/04/21 02:09:36;;;;;;;4.70;1.13;;;22.10;60.50;;;;;;5073413;28;20187;-67
2023/04/21 02:12:03;;;;;;;6.33;2.00;;;22.00;60.20;;;;;;5070853;28;20210;-67
2023/04/21 02:14:31;;;;;;;6.03;1.43;;;22.50;60.30;;;;;;5072416;28;20199;-65
2023/04/21 02:16:58;;;;;;;7.73;1.20;;;22.70;57.70;;;;;;5072385;28;20673;-71
2023/04/21 02:19:25;;;;;;;10.07;1.37;;;22.50;57.90;;;;;;5073247;28;20195;-67
2023/04/21 02:21:53;;;;;;;10.43;1.93;;;22.50;58.20;;;;;;5066295;28;20187;-67
2023/04/21 02:24:20;;;;;;;4.73;1.30;;;22.80;57.20;;;;;;5073400;28;20191;-64
2023/04/21 02:26:47;;;;;;;6.93;1.23;;;23.00;55.10;;;;;;5072053;28;20196;-68
2023/04/21 02:29:15;;;;;;;6.00;1.20;;;23.10;54.40;;;;;;5072941;28;20183;-67
2023/04/21 02:31:43;;;;;;;6.00;1.80;;;23.10;55.10;;;;;;5071959;28;20244;-67
2023/04/21 02:34:11;;;;;;;8.70;1.87;;;23.20;55.90;;;;;;5068667;28;20187;-67
2023/04/21 02:36:38;;;;;;;5.30;1.30;;;23.30;55.20;;;;;;5068987;28;20195;-66
2023/04/21 02:39:05;;;;;;;4.47;1.17;;;23.50;53.20;;;;;;5068309;28;20196;-67
2023/04/21 02:41:33;;;;;;;7.30;1.80;;;23.80;53.10;;;;;;5072066;28;20184;-65
2023/04/21 02:44:00;;;;;;;5.50;1.70;;;24.10;52.40;;;;;;5072399;28;20252;-68
2023/04/21 02:46:27;;;;;;;5.50;1.20;;;24.00;52.70;;;;;;5070378;28;21102;-67
2023/04/21 02:48:55;;;;;;;6.23;1.67;;;24.10;52.80;;;;;;5065253;28;20184;-69
2023/04/21 02:51:22;;;;;;;7.37;1.30;;;23.90;53.20;;;;;;5071105;28;20207;-67
2023/04/21 02:53:50;;;;;;;7.50;1.20;;;23.60;53.60;;;;;;5073153;28;20193;-67
2023/04/21 02:56:17;;;;;;;4.53;1.33;;;23.50;53.70;;;;;;5072606;28;20194;-66
2023/04/21 02:58:44;;;;;;;7.27;1.87;;;23.40;55.00;;;;;;5070580;28;20202;-67
2023/04/21 03:01:12;;;;;;;4.87;1.50;;;23.40;54.60;;;;;;5073269;28;20187;-69
2023/04/21 03:03:39;;;;;;;8.10;1.87;;;23.60;54.50;;;;;;5072107;28;20191;-65
2023/04/21 03:06:07;;;;;;;7.03;1.00;;;23.90;54.40;;;;;;5072875;28;20197;-69
2023/04/21 03:08:34;;;;;;;3.27;1.00;;;23.90;51.90;;;;;;5072527;28;20286;-65
2023/04/21 03:11:02;;;;;;;3.63;0.97;;;24.00;52.10;;;;;;5072530;28;20315;-69
2023/04/21 03:13:29;;;;;;;4.67;1.30;;;24.20;52.50;;;;;;5072072;28;20188;-66
2023/04/21 03:15:56;;;;;;;4.50;1.30;;;24.10;53.00;;;;;;5072059;28;20211;-70
2023/04/21 03:18:24;;;;;;;6.73;1.50;;;23.60;53.10;;;;;;5071352;28;20575;-68
2023/04/21 03:20:51;;;;;;;9.77;1.80;;;22.90;54.90;;;;;;5072518;28;20201;-66
2023/04/21 03:23:19;;;;;;;4.27;1.03;;;22.70;56.50;;;;;;5069407;28;20185;-66
2023/04/21 03:25:46;;;;;;;6.37;1.50;;;22.30;57.40;;;;;;5072222;28;20194;-69
2023/04/21 03:28:14;;;;;;;5.70;1.40;;;22.10;59.40;;;;;;5069636;28;20240;-69
2023/04/21 03:30:41;;;;;;;7.97;1.33;;;22.00;58.60;;;;;;5071709;28;20199;-66
2023/04/21 03:33:09;;;;;;;5.17;1.40;;;21.80;58.80;;;;;;5070354;28;20229;-66
2023/04/21 03:35:36;;;;;;;6.53;1.27;;;21.60;59.00;;;;;;5070531;28;20553;-66
2023/04/21 03:38:03;;;;;;;3.87;1.30;;;21.30;59.60;;;;;;5072196;28;20183;-65
2023/04/21 03:40:31;;;;;;;4.80;1.23;;;21.30;61.30;;;;;;5071924;28;20262;-69
2023/04/21 03:42:58;;;;;;;8.43;1.90;;;21.20;61.50;;;;;;5072055;28;20179;-68
2023/04/21 03:45:28;;;;;;;4.43;1.37;;;21.00;62.20;;;;;;5071905;28;20178;-68
2023/04/21 03:47:56;;;;;;;4.33;1.07;;;20.80;62.80;;;;;;5069549;28;20669;-66
2023/04/21 03:50:23;;;;;;;3.87;1.20;;;20.60;63.10;;;;;;5071729;28;20664;-68
2023/04/21 03:52:50;;;;;;;5.20;1.40;;;20.40;64.70;;;;;;5071869;28;20218;-66
2023/04/21 03:55:18;;;;;;;6.33;1.40;;;20.30;65.00;;;;;;5071790;28;20210;-65
2023/04/21 03:57:45;;;;;;;5.40;1.20;;;20.20;65.80;;;;;;5071910;28;20716;-65
2023/04/21 04:00:13;;;;;;;4.87;1.27;;;20.00;66.20;;;;;;5072094;28;20182;-68
2023/04/21 04:02:40;;;;;;;7.10;1.47;;;19.90;67.40;;;;;;5070485;28;20279;-68
2023/04/21 04:05:08;;;;;;;8.80;1.40;;;19.80;68.20;;;;;;5071651;28;20249;-66
2023/04/21 04:07:35;;;;;;;2.67;1.10;;;19.80;68.30;;;;;;5071690;28;20175;-68
2023/04/21 04:10:03;;;;;;;5.57;1.20;;;19.70;67.00;;;;;;5071292;28;20207;-67
2023/04/21 04:12:30;;;;;;;7.97;1.20;;;19.60;67.50;;;;;;5071862;28;20657;-68
2023/04/21 04:14:57;;;;;;;7.93;1.47;;;19.60;67.90;;;;;;5071610;28;20183;-66
2023/04/21 04:17:28;;;;;;;5.93;1.90;;;19.60;69.60;;;;;;5071247;28;20206;-66
2023/04/21 04:19:55;;;;;;;4.10;1.20;;;19.60;70.00;;;;;;5069134;28;20283;-68
2023/04/21 04:22:22;;;;;;;6.97;1.40;;;19.60;70.90;;;;;;5072443;28;20290;-67
2023/04/21 04:24:52;;;;;;;5.87;1.63;;;19.70;71.70;;;;;;5071675;28;20195;-66
2023/04/21 04:27:20;;;;;;;6.70;1.83;;;19.60;72.50;;;;;;5071698;28;20218;-66
2023/04/21 04:29:49;;;;;;;5.60;1.67;;;19.60;74.00;;;;;;5069278;28;20286;-65
2023/04/21 04:32:16;;;;;;;6.47;1.70;;;19.70;73.90;;;;;;5071611;28;20226;-66
2023/04/21 04:34:45;;;;;;;9.00;1.63;;;19.80;74.10;;;;;;5070816;28;20202;-67
2023/04/21 04:37:12;;;;;;;6.03;1.10;;;19.90;73.20;;;;;;5068323;28;20233;-67
2023/04/21 04:39:40;;;;;;;8.07;1.70;;;19.90;71.40;;;;;;5070275;28;20285;-66
2023/04/21 04:42:11;;;;;;;6.07;1.30;;;20.30;71.60;;;;;;5071373;28;20191;-66
2023/04/21 04:44:40;;;;;;;5.00;1.60;;;21.90;67.60;;;;;;5070325;28;20237;-66
2023/04/21 04:47:07;;;;;;;9.43;1.67;;;22.50;63.60;;;;;;5071573;28;20679;-68
2023/04/21 04:49:34;;;;;;;8.20;1.63;;;23.60;60.00;;;;;;5070496;28;20217;-68
2023/04/21 04:52:02;;;;;;;9.90;4.80;;;24.30;56.10;;;;;;5071493;28;20214;-69
2023/04/21 04:54:29;;;;;;;5.23;1.40;;;24.70;55.10;;;;;;5065774;28;20582;-69
2023/04/21 04:56:57;;;;;;;4.17;1.17;;;25.00;53.00;;;;;;5067697;28;20180;-68
2023/04/21 04:59:25;;;;;;;4.37;1.60;;;25.30;51.70;;;;;;5070985;28;20216;-65
2023/04/21 05:01:52;;;;;;;9.17;1.30;;;25.40;49.90;;;;;;5071482;28;20266;-67
2023/04/21 05:04:20;;;;;;;8.37;1.33;;;25.70;49.90;;;;;;5070184;28;20188;-66
2023/04/21 05:06:47;;;;;;;10.37;1.50;;;25.80;49.00;;;;;;5069134;28;20183;-65
2023/04/21 05:09:15;;;;;;;8.33;1.70;;;25.50;50.70;;;;;;5070173;28;20226;-66
2023/04/21 05:11:45;;;;;;;6.57;1.70;;;25.80;50.70;;;;;;5069747;28;21014;-66
2023/04/21 05:14:13;;;;;;;6.07;1.53;;;25.30;51.20;;;;;;5069651;28;20531;-65
2023/04/21 05:16:42;;;;;;;6.20;1.43;;;25.70;50.60;;;;;;5070646;28;20183;-65
2023/04/21 05:19:09;;;;;;;7.30;1.33;;;26.00;50.10;;;;;;5069246;28;20194;-66
2023/04/21 05:21:37;;;;;;;6.27;1.43;;;25.40;50.50;;;;;;5069178;28;20534;-67
2023/04/21 05:24:04;;;;;;;4.23;1.23;;;25.80;49.90;;;;;;5067582;28;20183;-67
2023/04/21 05:26:32;;;;;;;4.23;1.20;;;25.80;49.90;;;;;;5070817;28;20195;-67
2023/04/21 05:28:59;;;;;;;3.90;1.20;;;25.90;48.80;;;;;;5068272;28;20715;-67
2023/04/21 05:31:27;;;;;;;4.63;1.27;;;25.80;50.00;;;;;;5069261;28;20202;-68
2023/04/21 05:33:54;;;;;;;4.47;1.27;;;26.10;50.00;;;;;;5070502;28;20187;-66
2023/04/21 05:36:23;;;;;;;6.60;1.30;;;26.40;47.90;;;;;;5069183;28;20190;-66
2023/04/21 05:38:51;;;;;;;5.60;1.30;;;25.80;49.50;;;;;;5066127;28;20188;-68
2023/04/21 05:41:18;;;;;;;5.90;1.40;;;25.70;50.30;;;;;;5074553;28;20187;-66
2023/04/21 05:43:46;;;;;;;4.93;1.27;;;24.70;52.30;;;;;;5074062;28;20214;-68
2023/04/21 05:46:13;;;;;;;9.33;1.73;;;24.40;52.50;;;;;;5073559;28;20183;-68
2023/04/21 05:48:41;;;;;;;8.97;1.70;;;23.60;55.50;;;;;;5072740;28;20203;-66
2023/04/21 05:51:14;;;;;;;5.63;1.30;;;23.00;57.50;;;;;;5072990;28;20183;-66
2023/04/21 05:53:42;;;;;;;5.20;1.50;;;22.70;58.40;;;;;;5070541;28;20191;-68
2023/04/21 05:56:11;;;;;;;5.77;1.40;;;22.20;60.10;;;;;;5068506;28;20662;-67
2023/04/21 05:58:39;;;;;;;10.87;1.73;;;21.80;61.00;;;;;;5072568;28;20226;-68
2023/04/21 06:01:06;;;;;;;4.27;1.40;;;21.50;62.40;;;;;;5073615;28;20681;-66
2023/04/21 06:03:34;;;;;;;7.47;1.60;;;21.30;63.60;;;;;;5072945;28;20171;-64
2023/04/21 06:06:03;;;;;;;8.63;1.83;;;21.30;64.40;;;;;;5077188;28;20187;-66
2023/04/21 06:08:30;;;;;;;4.47;1.47;;;21.20;64.20;;;;;;5071206;28;20205;-66
2023/04/21 06:10:58;;;;;;;7.03;1.50;;;21.00;64.60;;;;;;5072589;28;20222;-67
2023/04/21 06:13:26;;;;;;;6.50;1.60;;;20.90;65.60;;;;;;5069659;28;20223;-66
2023/04/21 06:15:56;;;;;;;5.23;1.40;;;20.80;65.70;;;;;;5073320;28;20184;-67
2023/04/21 06:18:26;;;;;;;10.13;1.70;;;20.80;66.20;;;;;;5069279;28;20228;-65
2023/04/21 06:20:54;;;;;;;5.73;1.30;;;20.80;66.40;;;;;;5072794;28;20188;-67
2023/04/21 06:23:22;;;;;;;8.70;1.67;;;20.70;66.20;;;;;;5070853;28;20187;-67
2023/04/21 06:26:03;;;;;;;6.60;1.87;;;20.60;66.70;;;;;;5072464;28;20653;-67
2023/04/21 06:28:32;;;;;;;6.33;1.53;;;20.50;66.70;;;;;;5071335;28;20664;-66
2023/04/21 06:31:01;;;;;;;8.77;2.00;;;20.60;66.60;;;;;;5072513;28;20202;-66
2023/04/21 06:33:29;;;;;;;7.33;1.70;;;20.60;67.20;;;;;;5069013;28;20593;-68
2023/04/21 06:35:56;;;;;;;5.40;1.47;;;20.40;67.10;;;;;;5071271;28;20210;-68
2023/04/21 06:38:24;;;;;;;7.10;1.73;;;20.30;67.20;;;;;;5071318;28;20191;-66
2023/04/21 06:40:51;;;;;;;8.53;1.70;;;20.30;67.70;;;;;;5073413;28;20240;-66
2023/04/21 06:43:18;;;;;;;5.93;1.77;;;20.30;67.60;;;;;;5070712;28;20187;-66
2023/04/21 06:45:46;;;;;;;6.70;1.70;;;20.30;67.60;;;;;;5073025;28;20281;-67
2023/04/21 06:48:13;;;;;;;7.30;1.63;;;20.30;67.70;;;;;;5069648;28;20183;-68
2023/04/21 06:50:43;;;;;;;9.90;1.90;;;20.20;67.50;;;;;;5071447;28;20258;-66
2023/04/21 06:53:11;;;;;;;10.33;1.90;;;20.10;67.80;;;;;;5073226;28;20298;-66
2023/04/21 06:55:38;;;;;;;7.23;1.67;;;20.10;68.20;;;;;;5073248;28;21161;-68
2023/04/21 06:58:05;;;;;;;7.10;2.03;;;20.10;68.40;;;;;;5071911;28;20304;-66
2023/04/21 07:00:33;;;;;;;7.27;2.43;;;20.10;68.70;;;;;;5073063;28;20536;-66
2023/04/21 07:03:00;;;;;;;7.70;2.07;;;20.00;69.00;;;;;;5071428;28;20183;-66
2023/04/21 07:05:28;;;;;;;6.20;2.07;;;20.10;69.20;;;;;;5071335;28;20614;-66
2023/04/21 07:07:58;;;;;;;5.00;1.93;;;20.00;69.50;;;;;;5069781;28;20190;-70
2023/04/21 07:10:26;;;;;;;5.83;2.10;;;20.00;69.10;;;;;;5067003;28;20211;-67
2023/04/21 07:12:54;;;;;;;7.70;1.90;;;19.90;69.30;;;;;;5071317;28;20229;-68
2023/04/21 07:15:22;;;;;;;8.50;1.80;;;19.90;69.20;;;;;;5071543;28;20182;-67
2023/04/21 07:17:49;;;;;;;9.00;2.13;;;20.00;69.20;;;;;;5073166;28;20240;-67
2023/04/21 07:20:17;;;;;;;7.33;1.67;;;20.00;69.30;;;;;;5072812;28;20178;-67
2023/04/21 07:22:44;;;;;;;9.10;2.10;;;19.90;69.50;;;;;;5072627;28;20213;-65
2023/04/21 07:25:12;;;;;;;13.70;2.00;;;20.00;69.60;;;;;;5070158;28;20183;-68
2023/04/21 07:27:39;;;;;;;11.70;2.47;;;19.90;69.90;;;;;;5072206;28;20649;-66
2023/04/21 07:30:07;;;;;;;7.77;1.83;;;19.90;69.90;;;;;;5071651;28;20187;-67
2023/04/21 07:32:37;;;;;;;8.13;2.17;;;19.80;69.80;;;;;;5072046;28;20215;-65
2023/04/21 07:35:05;;;;;;;7.87;2.10;;;19.80;70.00;;;;;;5071158;28;20459;-67
2023/04/21 07:37:33;;;;;;;7.37;1.80;;;19.80;70.00;;;;;;5071566;28;20241;-67
2023/04/21 07:40:00;;;;;;;7.83;2.17;;;19.80;70.10;;;;;;5072221;28;20183;-66
2023/04/21 07:42:27;;;;;;;8.17;2.27;;;19.70;70.50;;;;;;5072571;28;20191;-68
2023/04/21 07:44:56;;;;;;;9.27;2.67;;;19.70;70.70;;;;;;5072276;28;20186;-67
2023/04/21 07:47:23;;;;;;;11.87;2.10;;;19.70;70.70;;;;;;5069801;28;20729;-66
2023/04/21 07:49:51;;;;;;;6.10;1.93;;;19.70;70.60;;;;;;5072251;28;20240;-65
2023/04/21 07:52:18;;;;;;;6.33;1.83;;;19.70;70.70;;;;;;5070491;28;20536;-67
2023/04/21 07:54:46;;;;;;;4.53;1.90;;;19.70;70.70;;;;;;5072330;28;20210;-66
2023/04/21 07:57:13;;;;;;;8.03;2.10;;;19.70;70.70;;;;;;5072225;28;20176;-67
2023/04/21 07:59:40;;;;;;;12.50;3.47;;;19.70;70.50;;;;;;5071503;28;20186;-67
2023/04/21 08:02:08;;;;;;;7.23;2.13;;;19.70;70.50;;;;;;5071837;28;20179;-67
2023/04/21 08:04:35;;;;;;;11.00;3.53;;;19.70;70.40;;;;;;5071689;28;20183;-67
2023/04/21 08:07:03;;;;;;;10.47;2.50;;;19.70;70.30;;;;;;5071703;28;20262;-67
2023/04/21 08:09:30;;;;;;;10.83;2.70;;;19.60;70.50;;;;;;5069189;28;20229;-65
2023/04/21 08:11:58;;;;;;;8.93;2.40;;;19.60;70.60;;;;;;5070117;28;20314;-65
2023/04/21 08:14:25;;;;;;;12.23;2.50;;;19.60;70.80;;;;;;5071612;28;20236;-65
2023/04/21 08:16:53;;;;;;;6.83;2.20;;;19.60;71.20;;;;;;5071732;28;20193;-66
2023/04/21 08:19:20;;;;;;;10.83;2.13;;;19.60;71.40;;;;;;5071951;28;20184;-68
2023/04/21 08:21:47;;;;;;;7.47;2.30;;;19.60;71.60;;;;;;5071142;28;20216;-66
2023/04/21 08:24:15;;;;;;;9.67;2.67;;;19.60;71.50;;;;;;5071805;28;20202;-65
2023/04/21 08:26:43;;;;;;;8.67;2.50;;;19.60;71.50;;;;;;5071551;28;20187;-66
2023/04/21 08:29:12;;;;;;;6.97;1.83;;;19.60;71.90;;;;;;5071875;28;20233;-66
2023/04/21 08:31:39;;;;;;;11.07;2.50;;;19.60;71.80;;;;;;5071038;28;20592;-64
2023/04/21 08:34:06;;;;;;;12.73;2.67;;;19.50;72.00;;;;;;5071828;28;20559;-65
2023/04/21 08:36:34;;;;;;;7.90;2.97;;;19.50;72.20;;;;;;5071267;28;20187;-66
2023/04/21 08:39:01;;;;;;;12.00;3.13;;;19.40;72.40;;;;;;5071570;28;20187;-65
2023/04/21 08:41:29;;;;;;;13.27;4.00;;;19.50;72.70;;;;;;5070793;28;20253;-68
2023/04/21 08:43:56;;;;;;;11.63;2.90;;;19.40;72.70;;;;;;5071199;28;20656;-65
2023/04/21 08:46:25;;;;;;;6.77;2.57;;;19.40;72.80;;;;;;5071209;28;20260;-67
2023/04/21 08:48:53;;;;;;;8.53;3.10;;;19.40;72.70;;;;;;5070208;28;20210;-66
2023/04/21 08:51:26;;;;;;;10.40;3.17;;;19.40;72.80;;;;;;5071043;28;20274;-67
2023/04/21 08:53:55;;;;;;;7.87;2.57;;;19.40;72.70;;;;;;5071222;28;20183;-67
2023/04/21 08:56:25;;;;;;;10.63;2.43;;;19.40;72.60;;;;;;5103249;28;20281;-67
2023/04/21 08:58:52;;;;;;;9.07;2.13;;;19.30;72.60;;;;;;5071009;28;20175;-67
2023/04/21 09:01:20;;;;;;;6.60;1.83;;;19.30;72.70;;;;;;5071299;28;20240;-67
2023/04/21 09:03:47;;;;;;;9.03;2.33;;;19.30;72.60;;;;;;5069147;28;23161;-67
2023/04/21 09:06:15;;;;;;;8.23;2.13;;;19.30;72.80;;;;;;5069648;28;20195;-65
2023/04/21 09:08:44;;;;;;;9.07;3.37;;;19.20;72.80;;;;;;5071164;28;20187;-66
2023/04/21 09:11:15;;;;;;;9.73;3.57;;;19.20;73.00;;;;;;5069328;28;20219;-67
2023/04/21 09:13:43;;;;;;;7.63;2.43;;;19.20;73.00;;;;;;5073826;28;20222;-66
2023/04/21 09:16:20;;;;;;;7.83;2.93;;;19.10;73.00;;;;;;5075283;28;20266;-67
2023/04/21 09:18:49;;;;;;;8.57;2.63;;;19.20;73.20;;;;;;5074234;28;20183;-68
2023/04/21 09:21:22;;;;;;;7.50;2.73;;;19.20;73.20;;;;;;5075095;28;20202;-68
2023/04/21 09:23:51;;;;;;;7.67;2.70;;;19.20;73.20;;;;;;5074951;28;20187;-65
2023/04/21 09:26:23;;;;;;;8.10;2.67;;;19.10;73.30;;;;;;5065510;28;20190;-67
2023/04/21 09:28:52;;;;;;;8.13;2.60;;;19.00;73.20;;;;;;5074243;28;20248;-67
2023/04/21 09:31:23;;;;;;;4.47;2.20;;;18.90;73.40;;;;;;5070718;28;20202;-67
2023/04/21 09:33:56;;;;;;;6.60;2.43;;;18.90;73.50;;;;;;5074838;28;20187;-66
2023/04/21 09:36:26;;;;;;;7.57;2.63;;;18.80;73.90;;;;;;5070819;28;20187;-67
2023/04/21 09:39:02;;;;;;;10.53;2.80;;;18.80;73.90;;;;;;5075280;28;20187;-67
2023/04/21 09:41:32;;;;;;;11.47;2.80;;;18.80;74.20;;;;;;5074412;28;20178;-67
2023/04/21 09:44:03;;;;;;;14.27;3.17;;;18.80;74.30;;;;;;5075026;28;20191;-68
2023/04/21 09:46:34;;;;;;;11.43;2.60;;;18.80;74.40;;;;;;5072879;28;20179;-68
2023/04/21 09:49:02;;;;;;;7.20;2.70;;;18.80;74.40;;;;;;5073328;28;20222;-66
2023/04/21 09:51:31;;;;;;;8.63;2.97;;;18.80;74.60;;;;;;5073824;28;20176;-68
2023/04/21 09:54:03;;;;;;;6.50;2.67;;;18.80;74.60;;;;;;5074663;28;20709;-67
2023/04/21 09:56:33;;;;;;;8.27;2.57;;;18.70;74.60;;;;;;5072628;28;20194;-67
2023/04/21 09:59:06;;;;;;;7.07;2.83;;;18.70;74.90;;;;;;5071501;28;20187;-67
2023/04/21 10:01:37;;;;;;;13.37;3.30;;;18.60;74.90;;;;;;5071303;28;20180;-66
2023/04/21 10:04:06;;;;;;;8.47;2.87;;;18.50;75.40;;;;;;5072988;28;20241;-67
2023/04/21 10:06:35;;;;;;;7.20;2.90;;;18.40;75.40;;;;;;5071952;28;20179;-68
2023/04/21 10:09:03;;;;;;;13.17;3.47;;;18.40;75.70;;;;;;5070283;28;20191;-68
2023/04/21 10:11:35;;;;;;;11.23;3.23;;;18.30;76.00;;;;;;5070050;28;20681;-66
2023/04/21 10:14:03;;;;;;;8.80;3.50;;;18.30;76.30;;;;;;5067856;28;20641;-66
2023/04/21 10:16:30;;;;;;;7.00;2.80;;;18.30;76.70;;;;;;5072558;28;20186;-66
2023/04/21 10:18:58;;;;;;;10.80;2.97;;;18.20;76.80;;;;;;5069892;28;20653;-66
2023/04/21 10:21:27;;;;;;;9.63;3.13;;;18.20;76.90;;;;;;5069880;28;20198;-65
2023/04/21 10:23:58;;;;;;;10.17;3.40;;;18.10;77.10;;;;;;5069891;28;20277;-66
2023/04/21 10:26:31;;;;;;;7.50;3.00;;;18.10;77.40;;;;;;5071532;28;20198;-66
2023/04/21 10:29:08;;;;;;;8.80;3.77;;;18.00;77.60;;;;;;5070623;28;20198;-67
2023/04/21 10:31:56;;;;;;;9.37;3.70;;;17.90;77.70;;;;;;5068701;28;20191;-65
2023/04/21 10:34:44;;;;;;;10.23;3.53;;;17.90;78.00;;;;;;5067619;28;20848;-66
2023/04/21 10:37:14;;;;;;;9.03;3.80;;;17.80;78.20;;;;;;5066132;28;20700;-67
2023/04/21 10:39:51;;;;;;;11.40;3.70;;;17.80;78.40;;;;;;5068865;28;20202;-67
2023/04/21 10:42:23;;;;;;;7.37;3.70;;;17.80;78.50;;;;;;5054215;28;20658;-66
2023/04/21 10:44:57;;;;;;;8.00;3.23;;;17.80;78.70;;;;;;5053829;28;20179;-67
2023/04/21 10:47:28;;;;;;;8.13;3.13;;;17.70;78.90;;;;;;5052138;28;20209;-65
2023/04/21 10:49:59;;;;;;;6.00;2.90;;;17.70;79.30;;;;;;5056993;28;20203;-66
2023/04/21 10:52:33;;;;;;;5.27;2.53;;;17.70;79.20;;;;;;5050251;28;20215;-69
2023/04/21 10:55:00;;;;;;;10.70;2.93;;;17.70;79.40;;;;;;5051891;28;21688;-65
2023/04/21 10:57:31;;;;;;;9.97;2.40;;;17.60;79.40;;;;;;5055814;28;20300;-66
2023/04/21 10:59:59;;;;;;;8.80;2.57;;;17.70;79.60;;;;;;5050321;28;20179;-65
2023/04/21 11:02:27;;;;;;;4.87;2.30;;;17.60;79.70;;;;;;5054384;28;20249;-66
2023/04/21 11:04:54;;;;;;;9.23;2.93;;;17.60;79.70;;;;;;5072018;28;20274;-66
2023/04/21 11:07:25;;;;;;;9.13;2.87;;;17.60;79.60;;;;;;5071610;28;20198;-65
2023/04/21 11:10:00;;;;;;;9.60;2.60;;;17.50;79.80;;;;;;5071468;28;20211;-66
2023/04/21 11:12:32;;;;;;;8.77;2.57;;;17.50;80.00;;;;;;5071099;28;20213;-67
2023/04/21 11:15:02;;;;;;;8.17;2.83;;;17.50;80.00;;;;;;5066172;28;20187;-66
2023/04/21 11:17:30;;;;;;;6.13;2.40;;;17.50;80.20;;;;;;5069851;28;20545;-66
2023/04/21 11:19:58;;;;;;;11.50;2.67;;;17.40;80.40;;;;;;5069660;28;20187;-66
2023/04/21 11:22:26;;;;;;;4.63;2.00;;;17.40;80.50;;;;;;5066766;28;20230;-66
2023/04/21 11:24:57;;;;;;;6.43;2.60;;;17.30;80.40;;;;;;5071908;28;20266;-66
2023/04/21 11:27:28;;;;;;;10.93;2.50;;;17.30;80.50;;;;;;5065508;28;20845;-66
2023/04/21 11:29:56;;;;;;;6.00;2.33;;;17.30;80.50;;;;;;5072370;28;20183;-66
2023/04/21 11:32:24;;;;;;;9.17;2.80;;;17.30;80.60;;;;;;5071093;28;20290;-65
2023/04/21 11:34:51;;;;;;;6.37;2.33;;;17.30;80.80;;;;;;5071138;28;20186;-66
2023/04/21 11:37:26;;;;;;;6.73;2.13;;;17.30;80.90;;;;;;5070659;28;20214;-66
2023/04/21 11:40:00;;;;;;;7.00;2.23;;;17.30;80.90;;;;;;5072318;28;20889;-66
2023/04/21 11:42:28;;;;;;;9.10;2.20;;;17.30;80.80;;;;;;5072193;28;20202;-66
2023/04/21 11:44:56;;;;;;;7.50;2.00;;;17.30;80.60;;;;;;5072350;28;20277;-67
2023/04/21 11:47:27;;;;;;;11.50;2.73;;;17.30;80.60;;;;;;5071132;28;20221;-66
2023/04/21 11:50:00;;;;;;;10.70;2.60;;;17.30;80.70;;;;;;5068085;28;20258;-66
2023/04/21 11:52:33;;;;;;;7.17;2.40;;;17.30;80.70;;;;;;5069743;28;20272;-67
2023/04/21 11:55:03;;;;;;;5.47;2.43;;;17.20;80.80;;;;;;5065719;28;20190;-65
2023/04/21 11:57:32;;;;;;;6.60;2.33;;;17.20;81.10;;;;;;5071786;28;20179;-68
2023/04/21 12:00:01;;;;;;;7.17;2.40;;;17.20;81.30;;;;;;5071671;28;20202;-67
2023/04/21 12:02:30;;;;;;;11.33;2.07;;;17.20;81.40;;;;;;5071946;28;20634;-66
2023/04/21 12:05:06;;;;;;;10.53;3.00;;;17.20;81.50;;;;;;5069039;28;20206;-65
2023/04/21 12:07:37;;;;;;;7.73;2.23;;;17.20;81.50;;;;;;5071144;28;20175;-65
2023/04/21 12:10:13;;;;;;;11.00;2.60;;;17.20;81.40;;;;;;5070319;28;20198;-66
2023/04/21 12:12:41;;;;;;;6.60;2.00;;;17.20;81.40;;;;;;5069595;28;20217;-66
2023/04/21 12:15:10;;;;;;;7.07;2.50;;;17.30;81.40;;;;;;5069884;28;20184;-68
2023/04/21 12:17:45;;;;;;;5.47;2.07;;;17.30;81.40;;;;;;5070059;28;20324;-67
2023/04/21 12:20:16;;;;;;;8.57;2.60;;;17.30;81.30;;;;;;5071259;28;20276;-67
2023/04/21 12:22:44;;;;;;;10.20;2.57;;;17.40;81.10;;;;;;5071144;28;20191;-67
2023/04/21 12:25:11;;;;;;;5.97;2.10;;;17.50;81.00;;;;;;5071193;28;20251;-66
2023/04/21 12:27:51;;;;;;;7.20;2.20;;;17.50;80.80;;;;;;5071012;28;20222;-66
2023/04/21 12:30:22;;;;;;;7.70;2.33;;;17.60;80.50;;;;;;5070921;28;20601;-66
2023/04/21 12:32:50;;;;;;;14.23;2.83;;;17.60;80.10;;;;;;5071699;28;20221;-66
2023/04/21 12:35:19;;;;;;;8.33;2.13;;;17.70;80.00;;;;;;5071779;28;20183;-66
2023/04/21 12:37:47;;;;;;;8.60;2.53;;;17.80;79.70;;;;;;5067571;28;20547;-67
2023/04/21 12:40:14;;;;;;;7.33;2.30;;;17.80;79.40;;;;;;5071189;28;20184;-68
2023/04/21 12:42:41;;;;;;;8.43;2.30;;;17.80;79.10;;;;;;5071502;28;20191;-65
2023/04/21 12:45:09;;;;;;;5.80;2.03;;;17.80;78.80;;;;;;5070708;28;20245;-66
2023/04/21 12:47:38;;;;;;;6.47;2.10;;;17.90;78.70;;;;;;5070790;28;20187;-68
2023/04/21 12:50:05;;;;;;;9.20;2.20;;;17.90;78.60;;;;;;5070782;28;20179;-67
2023/04/21 12:52:33;;;;;;;8.10;2.30;;;17.90;78.30;;;;;;5073948;28;20268;-66